Time;durP1;ratioP1;P1;durP2;ratioP2;P2;SDS_P1;SDS_P2;PMS_P1;PMS_P2;Temp;Humidity;BMP_temperature;BMP_pressure;BME280_temperature;BME280_humidity;BME280_pressure;Samples;Min_cycle;Max_cycle;Signal;HPM_P1;HPM_P2
2022/03/08 00:00:15;;;;;;;10.40;8.23;;;1.90;50.50;1.60;96927.00;;;;5036740;28;20837;-85
2022/03/08 00:02:42;;;;;;;8.83;7.20;;;1.90;50.50;1.60;96915.00;;;;5038225;28;20516;-84
2022/03/08 00:05:10;;;;;;;9.93;7.97;;;1.90;50.50;1.60;96914.00;;;;5038378;28;20451;-84
2022/03/08 00:07:37;;;;;;;10.30;7.77;;;1.90;50.50;1.60;96914.00;;;;5037289;28;20976;-84
2022/03/08 00:10:07;;;;;;;10.00;8.10;;;1.90;50.50;1.60;96910.00;;;;5037421;28;20448;-84
2022/03/08 00:12:36;;;;;;;9.23;8.17;;;1.90;50.50;1.60;96909.00;;;;5037535;28;20519;-84
2022/03/08 00:15:07;;;;;;;10.80;8.67;;;1.90;50.50;1.60;96911.00;;;;5035710;28;20482;-84
2022/03/08 00:17:34;;;;;;;10.77;8.80;;;1.90;50.50;1.60;96902.00;;;;5038646;28;20450;-84
2022/03/08 00:22:47;;;;;;;9.83;8.23;;;1.80;50.50;1.50;96895.00;;;;5043750;28;20526;-84
2022/03/08 00:25:16;;;;;;;8.97;8.07;;;1.80;50.50;1.50;96898.00;;;;5037971;28;20447;-84
2022/03/08 00:27:46;;;;;;;8.70;7.57;;;1.80;50.60;1.50;96904.00;;;;5038874;28;20454;-84
2022/03/08 00:30:16;;;;;;;10.97;8.80;;;1.80;50.50;1.50;96912.00;;;;5038979;28;20456;-83
2022/03/08 00:32:43;;;;;;;9.73;7.77;;;1.80;50.50;1.50;96900.00;;;;5038906;28;20443;-84
2022/03/08 00:35:11;;;;;;;11.17;8.90;;;1.80;50.60;1.40;96900.00;;;;5037396;28;20478;-84
2022/03/08 00:37:39;;;;;;;12.73;8.93;;;1.80;50.50;1.50;96901.00;;;;5037772;28;20519;-84
2022/03/08 00:40:10;;;;;;;9.30;8.30;;;1.80;50.60;1.40;96899.00;;;;5032924;28;20474;-85
2022/03/08 00:42:37;;;;;;;10.70;8.53;;;1.80;50.70;1.40;96903.00;;;;5030877;28;20450;-85
2022/03/08 00:45:09;;;;;;;11.67;8.93;;;1.80;50.70;1.40;96899.00;;;;5037683;28;20950;-85
2022/03/08 00:47:36;;;;;;;10.70;9.03;;;1.70;50.60;1.40;96887.00;;;;5037791;28;20432;-84
2022/03/08 00:50:06;;;;;;;10.63;8.70;;;1.70;50.50;1.40;96888.00;;;;5036772;28;20566;-85
2022/03/08 00:52:34;;;;;;;9.23;8.17;;;1.80;50.80;1.40;96893.00;;;;5036759;28;20521;-84
2022/03/08 00:55:01;;;;;;;11.17;8.50;;;1.70;50.70;1.40;96888.00;;;;5037281;28;20491;-84
2022/03/08 00:57:28;;;;;;;10.93;8.60;;;1.70;50.80;1.40;96883.00;;;;5037551;28;20444;-84
2022/03/08 00:59:57;;;;;;;9.63;7.73;;;1.70;50.80;1.40;96889.00;;;;5037610;28;20460;-83
2022/03/08 01:02:25;;;;;;;9.90;8.30;;;1.70;50.80;1.40;96887.00;;;;5037855;28;20451;-84
2022/03/08 01:04:52;;;;;;;10.93;8.97;;;1.70;50.90;1.40;96885.00;;;;5038240;28;20558;-84
2022/03/08 01:07:19;;;;;;;11.13;8.87;;;1.70;50.90;1.40;96895.00;;;;5036503;28;20802;-84
2022/03/08 01:09:46;;;;;;;11.17;8.77;;;1.70;50.90;1.40;96889.00;;;;5037376;28;20452;-85
2022/03/08 01:12:14;;;;;;;13.07;9.23;;;1.70;50.90;1.40;96883.00;;;;5037223;28;20520;-83
2022/03/08 01:14:41;;;;;;;13.13;9.13;;;1.70;51.00;1.40;96881.00;;;;5017265;28;20567;-84
2022/03/08 01:17:08;;;;;;;11.53;9.27;;;1.70;50.90;1.40;96871.00;;;;5026683;28;20446;-83
2022/03/08 01:19:36;;;;;;;13.90;9.10;;;1.70;50.90;1.40;96875.00;;;;5037541;28;20452;-84
2022/03/08 01:22:05;;;;;;;10.07;8.37;;;1.70;51.40;1.40;96872.00;;;;5037262;28;20443;-84
2022/03/08 01:24:32;;;;;;;10.07;8.67;;;1.70;50.90;1.40;96869.00;;;;5037559;28;20448;-84
2022/03/08 01:26:59;;;;;;;10.93;8.87;;;1.70;50.90;1.40;96878.00;;;;5035963;28;20456;-85
2022/03/08 01:29:26;;;;;;;11.67;8.80;;;1.70;51.00;1.40;96873.00;;;;5036891;28;20551;-83
2022/03/08 01:31:53;;;;;;;12.07;8.80;;;1.70;51.10;1.40;96869.00;;;;5037243;28;20527;-84
2022/03/08 01:34:20;;;;;;;14.13;8.57;;;1.70;51.10;1.40;96869.00;;;;5036648;28;20499;-84
2022/03/08 01:36:49;;;;;;;10.27;8.37;;;1.70;51.00;1.40;96868.00;;;;5037336;28;20443;-83
2022/03/08 01:39:16;;;;;;;11.87;8.67;;;1.70;51.10;1.40;96859.00;;;;5040131;28;20467;-84
2022/03/08 01:41:43;;;;;;;10.90;9.00;;;1.70;51.10;1.40;96863.00;;;;5040900;28;20921;-84
2022/03/08 01:44:11;;;;;;;11.80;9.00;;;1.70;51.00;1.40;96854.00;;;;5040875;28;20884;-84
2022/03/08 01:46:38;;;;;;;11.10;8.90;;;1.70;51.20;1.40;96856.00;;;;5040799;28;20423;-84
2022/03/08 01:49:06;;;;;;;11.60;9.00;;;1.70;51.10;1.40;96849.00;;;;5040344;28;20511;-83
2022/03/08 01:51:36;;;;;;;11.43;8.50;;;1.70;51.20;1.40;96859.00;;;;5042078;28;20455;-84
2022/03/08 01:54:06;;;;;;;11.20;9.03;;;1.70;51.20;1.40;96858.00;;;;5043285;28;20468;-84
2022/03/08 01:56:33;;;;;;;11.20;8.83;;;1.70;51.30;1.40;96849.00;;;;5042330;28;20436;-83
2022/03/08 01:59:00;;;;;;;12.40;8.60;;;1.70;51.20;1.40;96846.00;;;;5036443;28;20459;-84
2022/03/08 02:01:28;;;;;;;10.13;8.63;;;1.70;51.70;1.40;96834.00;;;;5042918;28;20468;-84
2022/03/08 02:03:55;;;;;;;11.60;7.90;;;1.70;51.30;1.40;96832.00;;;;5043072;28;20447;-83
2022/03/08 02:06:22;;;;;;;12.70;9.50;;;1.70;51.30;1.40;96830.00;;;;5036244;28;20459;-84
2022/03/08 02:08:49;;;;;;;11.93;9.20;;;1.70;51.30;1.40;96825.00;;;;5044719;28;20554;-83
2022/03/08 02:11:18;;;;;;;11.20;9.17;;;1.70;51.40;1.40;96820.00;;;;5049427;23;20505;-88
2022/03/08 02:13:45;;;;;;;10.73;8.57;;;1.70;51.30;1.40;96808.00;;;;5032759;28;20454;-87
2022/03/08 02:16:14;;;;;;;11.10;8.90;;;1.70;51.20;1.40;96814.00;;;;5033098;28;20987;-86
2022/03/08 02:18:41;;;;;;;11.60;8.77;;;2.70;51.70;1.40;96816.00;;;;5015256;28;20511;-87
2022/03/08 02:21:10;;;;;;;9.90;8.80;;;1.70;51.30;1.40;96819.00;;;;5018993;28;20436;-85
2022/03/08 02:23:37;;;;;;;11.63;9.43;;;1.70;51.30;1.40;96825.00;;;;5034704;28;20435;-87
2022/03/08 02:26:04;;;;;;;12.93;9.33;;;1.70;51.30;1.40;96824.00;;;;5032556;28;20827;-86
2022/03/08 02:28:32;;;;;;;11.30;9.23;;;1.90;51.40;1.40;96815.00;;;;5035080;28;20474;-87
2022/03/08 02:30:59;;;;;;;10.63;8.33;;;1.70;51.30;1.40;96819.00;;;;5034349;28;20904;-87
2022/03/08 02:33:27;;;;;;;11.83;8.87;;;1.70;51.30;1.40;96814.00;;;;5019104;28;20934;-86
2022/03/08 02:35:54;;;;;;;11.63;9.03;;;1.70;51.40;1.40;96810.00;;;;5034265;28;20490;-87
2022/03/08 02:38:22;;;;;;;11.33;8.33;;;1.70;51.40;1.40;96805.00;;;;5034986;28;20479;-87
2022/03/08 02:40:49;;;;;;;12.30;8.70;;;1.70;51.50;1.40;96817.00;;;;5036477;28;20450;-87
2022/03/08 02:43:17;;;;;;;12.43;9.20;;;1.70;51.40;1.30;96809.00;;;;5035541;28;20450;-87
2022/03/08 02:45:45;;;;;;;10.10;8.03;;;1.60;51.40;1.30;96811.00;;;;5034078;28;20543;-88
2022/03/08 02:48:12;;;;;;;12.00;8.63;;;2.60;51.80;1.30;96816.00;;;;5033637;28;20551;-86
2022/03/08 02:50:39;;;;;;;11.33;8.90;;;1.60;51.40;1.30;96802.00;;;;5034318;28;20535;-86
2022/03/08 02:53:07;;;;;;;13.20;9.17;;;1.60;51.40;1.30;96800.00;;;;5029160;28;20452;-87
2022/03/08 02:55:37;;;;;;;12.10;8.70;;;1.50;51.50;1.30;96804.00;;;;5033982;28;20487;-88
2022/03/08 02:58:06;;;;;;;11.77;9.17;;;1.60;51.50;1.30;96806.00;;;;5034548;28;20460;-87
2022/03/08 03:00:36;;;;;;;12.20;9.40;;;1.60;51.50;1.30;96796.00;;;;5033732;28;20436;-86
2022/03/08 03:03:04;;;;;;;11.83;8.80;;;1.60;51.60;1.30;96799.00;;;;5032620;28;20462;-87
2022/03/08 03:05:31;;;;;;;13.10;9.00;;;1.60;51.60;1.30;96802.00;;;;5034060;28;20444;-86
2022/03/08 03:07:59;;;;;;;12.23;9.33;;;1.60;51.50;1.20;96796.00;;;;5033134;28;20472;-87
2022/03/08 03:10:27;;;;;;;10.47;8.70;;;1.60;51.60;1.20;96806.00;;;;5034758;28;20441;-86
2022/03/08 03:12:58;;;;;;;11.73;8.73;;;1.70;51.70;1.20;96803.00;;;;5035314;28;20530;-87
2022/03/08 03:15:27;;;;;;;11.50;9.23;;;1.50;51.70;1.20;96801.00;;;;5034113;28;20909;-87
2022/03/08 03:17:55;;;;;;;11.83;9.10;;;1.50;51.70;1.20;96797.00;;;;5032734;28;20843;-87
2022/03/08 03:20:26;;;;;;;11.67;8.03;;;1.50;51.60;1.20;96791.00;;;;5034628;28;20438;-87
2022/03/08 03:22:53;;;;;;;12.07;9.17;;;1.50;51.70;1.10;96788.00;;;;5032705;28;20861;-88
2022/03/08 03:25:20;;;;;;;11.57;9.07;;;1.50;51.70;1.10;96791.00;;;;5033473;28;20808;-87
2022/03/08 03:27:47;;;;;;;11.87;8.60;;;1.50;51.70;1.10;96790.00;;;;5033423;28;20549;-87
2022/03/08 03:30:19;;;;;;;12.20;8.77;;;1.40;51.60;1.10;96797.00;;;;5033626;28;20438;-86
2022/03/08 03:32:47;;;;;;;12.20;8.77;;;1.40;51.70;1.10;96783.00;;;;5033003;28;20971;-85
2022/03/08 03:35:15;;;;;;;11.90;9.20;;;1.40;51.80;1.10;96790.00;;;;5033192;28;20484;-86
2022/03/08 03:37:42;;;;;;;9.90;8.63;;;1.40;51.80;1.00;96777.00;;;;5029939;28;20471;-84
2022/03/08 03:40:11;;;;;;;11.27;8.57;;;1.50;51.90;1.00;96782.00;;;;5033483;28;21322;-86
2022/03/08 03:42:39;;;;;;;9.87;8.23;;;1.40;52.00;1.00;96777.00;;;;5033782;28;20968;-86
2022/03/08 03:45:08;;;;;;;11.80;8.73;;;1.40;52.00;0.90;96774.00;;;;5029895;28;20455;-86
2022/03/08 03:47:37;;;;;;;10.73;8.57;;;1.30;52.00;0.90;96781.00;;;;5033540;28;20970;-88
2022/03/08 03:50:06;;;;;;;10.83;8.07;;;1.30;52.10;0.90;96776.00;;;;5030382;28;20716;-86
2022/03/08 03:52:33;;;;;;;11.63;8.53;;;1.30;52.20;0.90;96777.00;;;;5027364;28;20444;-86
2022/03/08 03:55:00;;;;;;;11.27;8.77;;;1.30;52.20;0.90;96778.00;;;;5028201;28;20484;-88
2022/03/08 03:57:27;;;;;;;12.17;8.50;;;1.30;52.20;0.90;96794.00;;;;5032705;28;20476;-87
2022/03/08 03:59:54;;;;;;;10.70;8.57;;;1.30;52.90;0.90;96783.00;;;;5032961;28;20456;-87
2022/03/08 04:02:21;;;;;;;11.50;8.70;;;1.30;52.30;0.90;96789.00;;;;5032713;28;20962;-87
2022/03/08 04:04:49;;;;;;;12.60;9.40;;;1.30;52.40;0.90;96792.00;;;;5033025;28;20447;-86
2022/03/08 04:07:16;;;;;;;11.60;9.27;;;1.30;52.50;0.90;96790.00;;;;5032588;28;20796;-87
2022/03/08 04:09:43;;;;;;;10.00;8.63;;;1.20;52.50;0.90;96796.00;;;;5033187;28;20465;-86
2022/03/08 04:12:10;;;;;;;11.37;9.03;;;1.20;52.50;0.90;96796.00;;;;5032560;28;20456;-88
2022/03/08 04:14:37;;;;;;;11.00;8.20;;;1.20;52.60;0.90;96793.00;;;;5032034;28;20484;-87
2022/03/08 04:17:05;;;;;;;12.67;8.17;;;1.20;52.50;0.90;96794.00;;;;5031674;28;20820;-87
2022/03/08 04:19:32;;;;;;;11.07;8.97;;;1.20;52.60;0.90;96794.00;;;;5032617;28;20440;-87
2022/03/08 04:22:00;;;;;;;10.37;8.70;;;1.20;52.60;0.80;96800.00;;;;5029025;28;20459;-87
2022/03/08 04:24:28;;;;;;;11.67;8.37;;;1.20;52.60;0.90;96796.00;;;;5032116;28;20466;-85
2022/03/08 04:26:55;;;;;;;10.90;8.83;;;1.20;52.60;0.90;96804.00;;;;5030983;28;20450;-86
2022/03/08 04:29:22;;;;;;;9.97;8.23;;;1.20;52.60;0.80;96788.00;;;;5030779;28;20436;-86
2022/03/08 04:31:49;;;;;;;9.70;8.53;;;1.20;52.60;0.90;96798.00;;;;5031939;28;20436;-87
2022/03/08 04:34:16;;;;;;;11.30;8.73;;;1.20;52.60;0.90;96786.00;;;;5032080;28;20450;-87
2022/03/08 04:36:43;;;;;;;11.43;8.50;;;1.20;52.60;0.90;96798.00;;;;5031709;28;20444;-88
2022/03/08 04:39:12;;;;;;;11.20;9.17;;;1.20;52.60;0.90;96792.00;;;;5026172;28;20476;-87
2022/03/08 04:41:39;;;;;;;9.43;7.87;;;1.20;52.60;0.90;96789.00;;;;5032501;28;20468;-87
2022/03/08 04:44:07;;;;;;;10.83;8.77;;;1.20;52.50;0.90;96790.00;;;;5030499;28;20451;-87
2022/03/08 04:46:35;;;;;;;13.67;8.70;;;1.20;52.50;0.90;96784.00;;;;5032140;28;20829;-87
2022/03/08 04:49:02;;;;;;;9.97;8.13;;;1.20;52.40;0.90;96795.00;;;;5032699;28;20456;-87
2022/03/08 04:51:29;;;;;;;11.60;8.47;;;1.30;52.60;0.90;96780.00;;;;5044153;22;20496;-88
2022/03/08 04:53:56;;;;;;;10.60;8.43;;;1.30;52.60;0.90;96783.00;;;;5024593;28;20437;-86
2022/03/08 04:56:24;;;;;;;9.70;8.00;;;1.90;52.90;1.00;96778.00;;;;5027023;28;20484;-88
2022/03/08 04:58:52;;;;;;;10.83;8.77;;;1.30;52.60;1.00;96780.00;;;;5046992;28;21046;-88
2022/03/08 05:01:19;;;;;;;11.63;8.63;;;1.30;52.50;1.00;96774.00;;;;5031941;28;20476;-88
2022/03/08 05:03:46;;;;;;;8.70;7.23;;;1.30;52.60;1.00;96771.00;;;;5033062;28;20553;-87
2022/03/08 05:06:13;;;;;;;10.60;8.13;;;1.30;52.60;1.00;96776.00;;;;5032403;28;20506;-88
2022/03/08 05:08:40;;;;;;;10.67;8.50;;;1.30;52.50;1.00;96769.00;;;;5031557;28;20436;-88
2022/03/08 05:11:07;;;;;;;10.53;9.23;;;2.20;52.90;1.00;96780.00;;;;5032539;28;20471;-88
2022/03/08 05:13:37;;;;;;;10.50;7.67;;;1.40;52.50;1.00;96753.00;;;;5033176;28;21079;-88
2022/03/08 05:16:05;;;;;;;10.10;8.30;;;3.00;53.30;1.10;96771.00;;;;5032916;28;20679;-88
2022/03/08 05:18:32;;;;;;;10.90;8.70;;;1.40;52.50;1.10;96787.00;;;;5033842;28;20527;-88
2022/03/08 05:20:59;;;;;;;11.80;8.40;;;1.40;52.50;1.10;96781.00;;;;5032293;28;20456;-87
2022/03/08 05:23:26;;;;;;;11.50;9.07;;;1.80;52.60;1.10;96774.00;;;;5024944;28;20481;-88
2022/03/08 05:25:53;;;;;;;10.27;8.30;;;2.30;52.90;1.10;96786.00;;;;5023676;28;20510;-88
2022/03/08 05:28:20;;;;;;;10.30;8.47;;;1.80;52.70;1.10;96784.00;;;;5032078;28;20523;-88
2022/03/08 05:30:50;;;;;;;10.20;8.53;;;1.40;52.50;1.10;96789.00;;;;5032258;28;21031;-88
2022/03/08 05:33:18;;;;;;;10.93;8.57;;;2.70;53.20;1.10;96786.00;;;;5032167;28;20444;-89
2022/03/08 05:35:45;;;;;;;10.23;8.37;;;1.40;52.50;1.10;96782.00;;;;5031780;28;20480;-89
2022/03/08 05:38:12;;;;;;;10.80;8.13;;;2.00;52.80;1.10;96782.00;;;;5031748;28;20455;-89
2022/03/08 05:40:39;;;;;;;13.17;8.60;;;1.40;52.50;1.10;96785.00;;;;5031410;28;20466;-89
2022/03/08 05:43:06;;;;;;;12.13;8.50;;;1.40;52.50;1.10;96772.00;;;;5031635;28;20437;-88
2022/03/08 05:45:33;;;;;;;9.73;8.53;;;2.50;53.00;1.10;96778.00;;;;5032690;28;20531;-88
2022/03/08 05:48:02;;;;;;;8.77;7.87;;;1.40;52.60;1.10;96792.00;;;;5032369;28;20443;-88
2022/03/08 05:50:29;;;;;;;9.60;8.60;;;1.40;52.50;1.10;96785.00;;;;5031725;28;20436;-88
2022/03/08 05:52:56;;;;;;;12.47;9.20;;;1.40;52.50;1.10;96793.00;;;;5032202;28;20535;-89
2022/03/08 05:55:23;;;;;;;10.83;8.60;;;1.50;52.60;1.10;96792.00;;;;5026573;28;20998;-88
2022/03/08 05:57:50;;;;;;;12.00;8.67;;;1.40;52.60;1.10;96789.00;;;;5032365;28;20448;-88
2022/03/08 06:00:18;;;;;;;10.07;8.10;;;2.90;53.30;1.10;96788.00;;;;5032109;28;20470;-88
2022/03/08 06:02:45;;;;;;;9.47;8.50;;;1.40;52.50;1.10;96795.00;;;;5039797;28;20475;-88
2022/03/08 06:05:13;;;;;;;11.87;8.60;;;1.40;52.50;1.10;96793.00;;;;5047272;28;20444;-88
2022/03/08 06:07:40;;;;;;;10.00;7.90;;;1.50;52.70;1.10;96789.00;;;;5032043;28;20444;-89
2022/03/08 06:10:09;;;;;;;10.70;8.10;;;1.40;52.60;1.20;96803.00;;;;5030521;28;20507;-89
2022/03/08 06:12:37;;;;;;;11.37;8.33;;;1.40;52.80;1.20;96779.00;;;;5032941;28;20478;-89
2022/03/08 06:15:06;;;;;;;12.80;7.70;;;1.40;52.70;1.20;96798.00;;;;5021959;28;20447;-88
2022/03/08 06:17:34;;;;;;;11.73;8.70;;;1.50;52.80;1.20;96790.00;;;;5031197;28;20524;-89
2022/03/08 06:20:01;;;;;;;11.50;8.77;;;1.50;52.80;1.20;96803.00;;;;5029489;28;20479;-88
2022/03/08 06:22:29;;;;;;;14.73;9.30;;;1.50;52.90;1.30;96793.00;;;;5031396;28;20488;-87
2022/03/08 06:24:56;;;;;;;10.73;8.07;;;1.50;53.40;1.30;96799.00;;;;5023909;28;20440;-87
2022/03/08 06:27:24;;;;;;;10.57;8.70;;;1.60;52.90;1.40;96798.00;;;;5035162;28;20818;-87
2022/03/08 06:29:52;;;;;;;11.77;8.57;;;1.60;52.90;1.50;96786.00;;;;5037415;28;21005;-87
2022/03/08 06:32:19;;;;;;;10.10;8.27;;;1.60;53.00;1.50;96795.00;;;;5035148;28;20455;-86
2022/03/08 06:34:47;;;;;;;11.30;8.37;;;1.60;53.10;1.60;96802.00;;;;5034786;28;20448;-87
2022/03/08 06:37:14;;;;;;;11.40;8.83;;;1.70;53.20;1.60;96800.00;;;;5009049;28;21074;-87
2022/03/08 06:39:42;;;;;;;11.43;8.87;;;1.70;53.10;1.70;96798.00;;;;5026328;28;20459;-86
2022/03/08 06:42:10;;;;;;;9.00;7.50;;;1.70;53.00;1.70;96793.00;;;;5032859;28;20467;-87
2022/03/08 06:44:38;;;;;;;11.90;8.50;;;1.70;52.90;1.70;96798.00;;;;5032538;28;20761;-87
2022/03/08 06:47:06;;;;;;;14.23;8.80;;;1.90;53.00;1.80;96810.00;;;;5034455;28;20470;-87
2022/03/08 06:49:34;;;;;;;11.50;8.97;;;1.80;53.10;1.90;96804.00;;;;5026288;28;20451;-87
2022/03/08 06:52:01;;;;;;;11.97;8.83;;;2.60;53.50;1.90;96804.00;;;;5034188;28;20471;-88
2022/03/08 06:54:28;;;;;;;10.60;8.37;;;1.90;53.20;2.00;96808.00;;;;5032691;28;20950;-87
2022/03/08 06:56:56;;;;;;;9.47;8.00;;;2.00;53.30;2.10;96795.00;;;;5034693;28;20488;-88
2022/03/08 06:59:25;;;;;;;10.90;8.77;;;3.20;53.80;2.20;96803.00;;;;5034044;28;20839;-87
2022/03/08 07:01:53;;;;;;;10.00;8.33;;;2.10;53.20;2.30;96802.00;;;;5033623;28;20870;-87
2022/03/08 07:04:20;;;;;;;11.77;8.57;;;2.20;53.30;2.40;96808.00;;;;5034236;28;20938;-88
2022/03/08 07:06:47;;;;;;;10.10;8.60;;;2.20;53.30;2.50;96803.00;;;;5025042;28;20484;-87
2022/03/08 07:09:15;;;;;;;11.20;8.63;;;2.30;53.30;2.60;96798.00;;;;5033218;28;20883;-87
2022/03/08 07:11:42;;;;;;;9.97;8.40;;;2.40;53.40;2.80;96802.00;;;;5029900;28;21010;-88
2022/03/08 07:14:15;;;;;;;10.60;8.87;;;2.60;53.40;2.90;96810.00;;;;5033653;28;20539;-88
2022/03/08 07:16:42;;;;;;;10.27;8.50;;;2.70;53.50;3.10;96798.00;;;;5028465;28;20488;-87
2022/03/08 07:19:09;;;;;;;12.80;9.40;;;2.80;53.50;3.30;96811.00;;;;5034287;28;20447;-88
2022/03/08 07:21:37;;;;;;;9.87;8.03;;;2.90;53.40;3.40;96817.00;;;;5032037;28;20471;-87
2022/03/08 07:24:05;;;;;;;9.57;8.07;;;3.10;53.50;3.60;96795.00;;;;5033775;28;20821;-88
2022/03/08 07:26:32;;;;;;;8.43;7.63;;;3.20;53.50;3.80;96823.00;;;;5034678;28;20498;-88
2022/03/08 07:28:59;;;;;;;8.87;7.83;;;3.40;53.50;4.00;96827.00;;;;5029920;28;20452;-87
2022/03/08 07:31:28;;;;;;;9.53;8.30;;;3.60;53.40;4.20;96829.00;;;;5019786;28;20455;-87
2022/03/08 07:33:55;;;;;;;9.43;7.70;;;3.70;53.30;4.30;96836.00;;;;5030981;28;20460;-89
2022/03/08 07:36:23;;;;;;;8.67;7.40;;;3.90;53.20;4.50;96831.00;;;;5035888;28;20583;-88
2022/03/08 07:38:50;;;;;;;8.70;7.43;;;4.10;53.10;4.60;96841.00;;;;5041895;28;20194;-88
2022/03/08 07:41:17;;;;;;;11.30;7.20;;;4.20;52.90;4.70;96840.00;;;;5033884;28;20213;-87
2022/03/08 07:43:44;;;;;;;9.23;7.10;;;4.30;52.70;4.80;96850.00;;;;5029780;28;20196;-88
2022/03/08 07:46:11;;;;;;;8.73;7.13;;;4.50;52.60;4.90;96846.00;;;;5032277;28;20198;-88
2022/03/08 07:48:39;;;;;;;7.33;6.63;;;4.60;52.40;5.00;96841.00;;;;5034165;28;20281;-88
2022/03/08 07:51:07;;;;;;;8.50;6.97;;;4.70;52.20;5.10;96854.00;;;;5027847;28;20225;-88
2022/03/08 07:53:34;;;;;;;8.83;7.20;;;4.80;52.00;5.20;96857.00;;;;5035323;28;20215;-87
2022/03/08 07:56:01;;;;;;;8.60;6.77;;;4.90;51.90;5.30;96856.00;;;;5050827;28;20223;-91
2022/03/08 07:58:28;;;;;;;7.50;6.67;;;5.00;51.70;5.40;96857.00;;;;5031175;28;20194;-87
2022/03/08 08:00:55;;;;;;;7.50;6.73;;;5.10;51.60;5.50;96858.00;;;;5028133;28;20216;-87
2022/03/08 08:03:23;;;;;;;7.60;6.50;;;5.20;51.50;5.60;96852.00;;;;5018577;28;20190;-87
2022/03/08 08:05:51;;;;;;;7.30;6.60;;;5.60;51.70;5.80;96849.00;;;;5018221;28;20261;-88
2022/03/08 08:08:18;;;;;;;8.13;6.87;;;5.50;51.40;5.90;96850.00;;;;5026088;28;20208;-88
2022/03/08 08:10:46;;;;;;;7.67;6.87;;;6.70;51.80;6.00;96853.00;;;;5030730;28;20216;-89
2022/03/08 08:13:13;;;;;;;7.57;6.87;;;5.70;51.20;6.10;96854.00;;;;5029467;28;20189;-88
2022/03/08 08:15:40;;;;;;;8.40;6.67;;;5.80;51.10;6.30;96858.00;;;;5030230;28;20193;-87
2022/03/08 08:18:07;;;;;;;10.43;6.60;;;5.90;51.60;6.50;96867.00;;;;5029262;28;20197;-87
2022/03/08 08:20:35;;;;;;;9.57;7.00;;;6.10;51.00;6.60;96860.00;;;;5031914;28;20668;-87
2022/03/08 08:23:03;;;;;;;7.77;6.97;;;6.20;51.00;6.80;96862.00;;;;5019138;28;20285;-88
2022/03/08 08:25:30;;;;;;;7.43;6.63;;;6.40;51.00;7.00;96859.00;;;;5022497;28;20193;-88
2022/03/08 08:27:57;;;;;;;7.27;6.57;;;6.50;50.90;7.20;96861.00;;;;5033159;28;20201;-86
2022/03/08 08:30:25;;;;;;;6.67;5.73;;;6.60;50.90;7.30;96865.00;;;;5032311;28;20197;-88
2022/03/08 08:32:52;;;;;;;6.23;5.63;;;6.80;50.80;7.50;96864.00;;;;5033919;28;20205;-88
2022/03/08 08:35:20;;;;;;;7.33;6.60;;;7.00;50.70;7.70;96870.00;;;;5031536;28;20565;-87
2022/03/08 08:37:47;;;;;;;8.60;6.60;;;7.10;50.50;7.90;96853.00;;;;5032541;28;20225;-88
2022/03/08 08:40:18;;;;;;;7.33;6.17;;;7.30;50.40;8.10;96872.00;;;;5032973;28;20198;-88
2022/03/08 08:42:45;;;;;;;8.00;6.93;;;7.50;50.90;8.30;96877.00;;;;5032024;28;20236;-88
2022/03/08 08:45:13;;;;;;;7.63;6.93;;;7.60;50.30;8.50;96870.00;;;;5032108;28;20624;-88
2022/03/08 08:47:41;;;;;;;7.07;6.20;;;7.80;50.30;8.70;96868.00;;;;5026045;28;20288;-89
2022/03/08 08:50:09;;;;;;;6.13;5.53;;;7.90;49.90;8.90;96869.00;;;;5032487;28;20195;-88
2022/03/08 08:52:37;;;;;;;6.80;6.10;;;8.10;50.00;9.10;96871.00;;;;5032795;28;20300;-88
2022/03/08 08:55:05;;;;;;;6.43;5.73;;;8.30;49.70;9.40;96871.00;;;;5032857;28;20192;-88
2022/03/08 08:57:34;;;;;;;6.13;5.60;;;8.50;49.80;9.70;96885.00;;;;5031320;28;20235;-88
2022/03/08 09:00:01;;;;;;;7.63;6.30;;;8.70;49.60;9.90;96882.00;;;;5032572;28;20204;-88
2022/03/08 09:02:28;;;;;;;6.53;5.83;;;8.90;49.60;10.30;96877.00;;;;5031104;28;20225;-88
2022/03/08 09:04:55;;;;;;;6.33;5.73;;;9.20;49.60;10.60;96871.00;;;;5029047;28;20194;-88
2022/03/08 09:07:22;;;;;;;6.53;5.93;;;10.50;50.20;10.90;96888.00;;;;5032377;28;20602;-88
2022/03/08 09:09:50;;;;;;;6.27;5.60;;;9.80;49.60;11.20;96887.00;;;;5029704;28;20221;-90
2022/03/08 09:12:17;;;;;;;6.60;6.00;;;10.40;49.60;11.60;96897.00;;;;5031808;28;20282;-88
2022/03/08 09:14:45;;;;;;;6.13;5.47;;;10.70;49.40;11.80;96880.00;;;;5018856;28;20707;-88
2022/03/08 09:17:13;;;;;;;6.53;4.87;;;11.20;49.10;12.10;96886.00;;;;5014015;28;20264;-88
2022/03/08 09:19:40;;;;;;;7.87;5.53;;;11.70;48.80;12.40;96904.00;;;;5031348;28;20200;-89
2022/03/08 09:22:07;;;;;;;5.73;5.13;;;12.30;48.10;12.70;96902.00;;;;5032345;28;20300;-89
2022/03/08 09:24:37;;;;;;;5.00;4.60;;;12.80;47.10;12.90;96895.00;;;;5019608;28;20585;-89
2022/03/08 09:27:05;;;;;;;5.43;4.93;;;13.30;46.70;13.10;96898.00;;;;5033037;28;20596;-89
2022/03/08 09:29:32;;;;;;;4.90;4.13;;;13.80;46.00;13.40;96897.00;;;;5032549;28;20201;-89
2022/03/08 09:32:01;;;;;;;4.47;4.13;;;14.20;45.50;13.60;96904.00;;;;5032166;28;20231;-89
2022/03/08 09:34:29;;;;;;;4.60;4.17;;;14.70;45.00;13.90;96901.00;;;;5013150;28;20217;-89
2022/03/08 09:36:56;;;;;;;5.17;4.70;;;15.00;44.30;14.10;96902.00;;;;5013530;28;20305;-90
2022/03/08 09:39:23;;;;;;;4.53;4.13;;;15.40;43.40;14.30;96890.00;;;;5032360;28;20284;-89
2022/03/08 09:41:53;;;;;;;4.93;4.43;;;15.60;42.00;14.40;96908.00;;;;5028302;28;20213;-89
2022/03/08 09:44:21;;;;;;;4.93;3.97;;;15.80;40.10;14.50;96896.00;;;;5034398;28;20232;-90
2022/03/08 09:46:48;;;;;;;4.20;3.90;;;15.90;40.30;14.60;96896.00;;;;5052607;28;20227;-90
2022/03/08 09:49:16;;;;;;;4.00;3.70;;;16.00;39.30;14.70;96890.00;;;;5035778;28;20280;-90
2022/03/08 09:51:44;;;;;;;4.93;3.77;;;16.20;39.90;14.80;96889.00;;;;5030811;28;20248;-91
2022/03/08 09:54:11;;;;;;;3.63;3.33;;;16.00;38.80;14.80;96902.00;;;;5032541;28;20657;-90
2022/03/08 09:56:39;;;;;;;3.40;3.10;;;15.90;38.10;14.90;96897.00;;;;5031935;28;20217;-90
2022/03/08 09:59:06;;;;;;;3.53;3.23;;;15.80;37.80;14.80;96891.00;;;;5034154;28;20203;-90
2022/03/08 10:01:33;;;;;;;4.43;3.87;;;15.50;38.10;14.80;96892.00;;;;5036324;28;20312;-90
2022/03/08 10:04:03;;;;;;;4.87;4.37;;;15.30;37.70;14.70;96889.00;;;;5036043;28;20213;-91
2022/03/08 10:06:42;;;;;;;4.60;3.23;;;15.20;36.80;14.70;96892.00;;;;5036339;28;20209;-90
2022/03/08 10:09:15;;;;;;;3.40;3.10;;;15.10;37.40;14.60;96890.00;;;;5036282;28;20280;-91
2022/03/08 10:11:42;;;;;;;3.83;3.40;;;14.90;37.80;14.50;96883.00;;;;5035771;28;20330;-90
2022/03/08 10:14:27;;;;;;;4.40;3.20;;;15.00;36.70;14.40;96875.00;;;;5036112;28;20228;-90
2022/03/08 10:16:54;;;;;;;3.37;3.07;;;14.90;37.30;14.40;96878.00;;;;5035365;28;20251;-89
2022/03/08 10:19:21;;;;;;;4.70;3.13;;;14.80;37.20;14.40;96882.00;;;;5035191;28;20197;-89
2022/03/08 10:21:51;;;;;;;3.53;3.27;;;15.00;37.30;14.40;96881.00;;;;5035764;28;20227;-90
2022/03/08 10:24:22;;;;;;;3.30;2.97;;;15.50;37.40;14.40;96876.00;;;;5021335;28;20635;-89
2022/03/08 10:26:52;;;;;;;3.80;2.90;;;15.30;37.30;14.30;96890.00;;;;5028691;28;20198;-90
2022/03/08 10:29:25;;;;;;;4.20;2.93;;;15.40;37.60;14.30;96889.00;;;;5020203;28;20296;-90
2022/03/08 10:32:08;;;;;;;6.53;2.30;;;15.60;37.30;14.50;96890.00;;;;5031091;28;20967;-91
2022/03/08 10:34:37;;;;;;;4.13;2.13;;;15.80;37.20;14.50;96885.00;;;;5035363;28;20201;-89
2022/03/08 10:37:10;;;;;;;2.73;2.50;;;15.90;36.70;14.60;96872.00;;;;5034871;28;20228;-89
2022/03/08 10:39:50;;;;;;;3.13;2.93;;;16.00;36.30;14.70;96891.00;;;;5035168;28;20197;-89
2022/03/08 10:42:21;;;;;;;3.47;2.53;;;16.10;34.40;14.70;96880.00;;;;5035035;28;20595;-89
2022/03/08 10:44:49;;;;;;;3.00;2.80;;;16.20;35.20;14.80;96886.00;;;;5035298;28;20205;-90
2022/03/08 10:47:18;;;;;;;2.70;2.50;;;16.30;35.50;14.90;96888.00;;;;5034800;28;20276;-89
2022/03/08 10:49:52;;;;;;;2.60;2.40;;;16.40;35.10;14.90;96880.00;;;;5026448;28;20205;-89
2022/03/08 10:52:29;;;;;;;3.60;2.80;;;16.60;35.70;15.00;96889.00;;;;5035797;28;20244;-89
2022/03/08 10:55:09;;;;;;;3.20;3.00;;;16.50;34.60;15.00;96885.00;;;;5034913;28;20199;-90
2022/03/08 10:57:37;;;;;;;3.90;3.10;;;16.50;34.10;15.00;96884.00;;;;5024029;28;20587;-89
2022/03/08 11:00:11;;;;;;;3.20;2.80;;;16.30;33.00;14.90;96882.00;;;;5034823;28;20204;-90
2022/03/08 11:02:49;;;;;;;4.00;3.60;;;16.20;33.60;14.80;96889.00;;;;5035346;28;20230;-89
2022/03/08 11:05:18;;;;;;;3.20;2.90;;;16.00;33.20;14.70;96883.00;;;;5034320;28;20549;-89
2022/03/08 11:07:48;;;;;;;3.43;3.10;;;15.70;33.30;14.60;96884.00;;;;5034499;28;20205;-90